createdAt,value
2023-04-06T00:02:22.867Z,1024.31
2023-04-06T00:04:51.128Z,1024.37
2023-04-06T00:07:18.011Z,1024.29
2023-04-06T00:09:44.840Z,1024.33
2023-04-06T00:12:11.673Z,1024.33
2023-04-06T00:14:38.500Z,1024.33
2023-04-06T00:17:05.449Z,1024.34
2023-04-06T00:19:32.423Z,1024.41
2023-04-06T00:22:00.688Z,1024.38
2023-04-06T00:24:27.529Z,1024.34
2023-04-06T00:26:54.323Z,1024.30
2023-04-06T00:29:21.233Z,1024.34
2023-04-06T00:31:48.036Z,1024.35
2023-04-06T00:34:14.855Z,1024.29
2023-04-06T00:36:41.770Z,1024.42
2023-04-06T00:39:10.676Z,1024.30
2023-04-06T00:41:37.535Z,1024.42
2023-04-06T00:44:04.435Z,1024.28
2023-04-06T00:46:31.505Z,1024.28
2023-04-06T00:48:58.464Z,1024.25
2023-04-06T00:51:25.314Z,1024.24
2023-04-06T00:53:52.200Z,1024.35
2023-04-06T00:56:20.493Z,1024.38
2023-04-06T00:58:47.349Z,1024.27
2023-04-06T01:01:14.137Z,1024.38
2023-04-06T01:03:40.999Z,1024.41
2023-04-06T01:06:07.907Z,1024.36
2023-04-06T01:08:34.849Z,1024.33
2023-04-06T01:11:01.778Z,1024.29
2023-04-06T01:13:30.174Z,1024.28
2023-04-06T01:15:57.239Z,1024.33
2023-04-06T01:18:27.211Z,1024.30
2023-04-06T01:20:54.118Z,1024.40
2023-04-06T01:23:22.553Z,1024.52
2023-04-06T01:25:49.358Z,1024.62
2023-04-06T01:28:16.217Z,1024.40
2023-04-06T01:30:43.048Z,1024.50
2023-04-06T01:33:09.859Z,1024.47
2023-04-06T01:35:36.799Z,1024.38
2023-04-06T01:38:03.702Z,1024.31
2023-04-06T01:40:31.959Z,1024.28
2023-04-06T01:42:58.727Z,1024.27
2023-04-06T01:45:25.539Z,1024.16
2023-04-06T01:47:52.390Z,1024.17
2023-04-06T01:50:19.260Z,1024.14
2023-04-06T01:52:46.179Z,1024.16
2023-04-06T01:55:13.008Z,1024.19
2023-04-06T01:57:41.244Z,1024.24
2023-04-06T02:00:09.180Z,1024.26
2023-04-06T02:02:36.137Z,1024.23
2023-04-06T02:05:03.092Z,1024.25
2023-04-06T02:07:29.970Z,1024.23
2023-04-06T02:09:56.797Z,1024.31
2023-04-06T02:12:23.572Z,1024.50
2023-04-06T02:14:51.902Z,1024.23
2023-04-06T02:17:18.812Z,1024.28
2023-04-06T02:19:45.600Z,1024.22
2023-04-06T02:22:12.578Z,1024.18
2023-04-06T02:24:39.367Z,1024.26
2023-04-06T02:27:06.297Z,1024.34
2023-04-06T02:29:33.184Z,1024.31
2023-04-06T02:32:01.556Z,1024.23
2023-04-06T02:34:28.531Z,1024.17
2023-04-06T02:36:55.387Z,1024.31
2023-04-06T02:39:22.220Z,1024.27
2023-04-06T02:41:49.163Z,1024.21
2023-04-06T02:44:15.985Z,1024.21
2023-04-06T02:46:42.825Z,1024.14
2023-04-06T02:49:11.101Z,1024.19
2023-04-06T02:51:37.958Z,1024.14
2023-04-06T02:54:04.894Z,1024.14
2023-04-06T02:56:31.694Z,1024.11
2023-04-06T02:58:58.628Z,1024.13
2023-04-06T03:01:25.566Z,1024.14
2023-04-06T03:03:52.543Z,1024.05
2023-04-06T03:06:20.853Z,1024.08
2023-04-06T03:08:47.728Z,1024.05
2023-04-06T03:11:14.571Z,1024.08
2023-04-06T03:13:41.476Z,1024.09
2023-04-06T03:16:08.411Z,1024.11
2023-04-06T03:18:35.275Z,1024.15
2023-04-06T03:21:02.074Z,1024.14
2023-04-06T03:23:30.362Z,1024.20
2023-04-06T03:25:57.150Z,1024.25
2023-04-06T03:28:24.064Z,1024.32
2023-04-06T03:30:50.926Z,1024.32
2023-04-06T03:33:17.726Z,1024.37
2023-04-06T03:35:44.737Z,1024.31
2023-04-06T03:38:11.613Z,1024.35
2023-04-06T03:40:39.973Z,1024.33
2023-04-06T03:43:06.882Z,1024.38
2023-04-06T03:45:33.700Z,1024.51
2023-04-06T03:48:00.587Z,1024.41
2023-04-06T03:50:27.456Z,1024.52
2023-04-06T03:52:54.344Z,1024.54
2023-04-06T03:55:21.212Z,1024.47
2023-04-06T03:57:49.421Z,1024.49
2023-04-06T04:00:16.723Z,1024.46
2023-04-06T04:02:43.703Z,1024.47
2023-04-06T04:05:10.889Z,1024.49
2023-04-06T04:07:37.783Z,1024.47
2023-04-06T04:10:05.243Z,1024.47
2023-04-06T04:12:32.083Z,1024.50
2023-04-06T04:15:00.299Z,1024.49
2023-04-06T04:17:27.202Z,1024.53
2023-04-06T04:19:54.128Z,1024.52
2023-04-06T04:22:20.948Z,1024.57
2023-04-06T04:24:47.824Z,1024.49
2023-04-06T04:27:14.627Z,1024.60
2023-04-06T04:29:41.423Z,1024.65
2023-04-06T04:32:09.933Z,1024.70
2023-04-06T04:34:36.828Z,1024.73
2023-04-06T04:37:03.699Z,1024.76
2023-04-06T04:39:30.549Z,1024.72
2023-04-06T04:41:57.439Z,1024.76
2023-04-06T04:44:24.249Z,1024.85
2023-04-06T04:46:51.152Z,1024.69
2023-04-06T04:49:19.424Z,1024.77
2023-04-06T04:51:46.305Z,1024.81
2023-04-06T04:54:13.179Z,1024.84
2023-04-06T04:56:40.074Z,1024.90
2023-04-06T04:59:07.258Z,1024.95
2023-04-06T05:01:47.420Z,1024.94
2023-04-06T05:04:23.642Z,1025.01
2023-04-06T05:06:50.501Z,1024.90
2023-04-06T05:09:17.301Z,1024.91
2023-04-06T05:11:44.185Z,1024.87
2023-04-06T05:14:11.113Z,1024.79
2023-04-06T05:16:37.940Z,1024.83
2023-04-06T05:19:04.787Z,1024.83
2023-04-06T05:21:33.040Z,1024.85
2023-04-06T05:23:59.836Z,1024.79
2023-04-06T05:26:26.691Z,1024.75
2023-04-06T05:28:53.636Z,1024.81
2023-04-06T05:31:20.527Z,1024.80
2023-04-06T05:33:47.547Z,1024.72
2023-04-06T05:36:15.369Z,1024.77
2023-04-06T05:38:43.809Z,1024.76
2023-04-06T05:41:10.692Z,1024.81
2023-04-06T05:43:37.861Z,1024.76
2023-04-06T05:46:05.118Z,1024.83
2023-04-06T05:48:32.121Z,1024.85
2023-04-06T05:50:58.994Z,1024.87
2023-04-06T05:53:25.893Z,1024.79
2023-04-06T05:55:54.151Z,1024.86
2023-04-06T05:58:21.123Z,1024.87
2023-04-06T06:00:47.929Z,1024.87
2023-04-06T06:03:15.784Z,1024.87
2023-04-06T06:05:42.748Z,1024.32
2023-04-06T06:08:09.615Z,1023.87
2023-04-06T06:10:36.487Z,1023.57
2023-04-06T06:13:04.676Z,1023.27
2023-04-06T06:15:31.692Z,1023.02
2023-04-06T06:17:58.669Z,1022.79
2023-04-06T06:20:25.706Z,1022.60
2023-04-06T06:22:52.629Z,1022.53
2023-04-06T06:25:19.542Z,1022.44
2023-04-06T06:27:46.668Z,1022.35
2023-04-06T06:30:15.430Z,1022.14
2023-04-06T06:32:42.344Z,1021.76
2023-04-06T06:35:09.824Z,1021.62
2023-04-06T06:37:37.152Z,1021.52
2023-04-06T06:40:04.652Z,1021.38
2023-04-06T06:42:31.549Z,1021.22
2023-04-06T06:44:58.834Z,1021.11
2023-04-06T06:47:29.510Z,1020.99
2023-04-06T06:49:57.673Z,1020.89
2023-04-06T06:52:24.722Z,1020.84
2023-04-06T06:54:57.172Z,1020.71
2023-04-06T06:57:27.184Z,1020.66
2023-04-06T06:59:55.082Z,1020.55
2023-04-06T07:02:21.990Z,1020.53
2023-04-06T07:04:50.735Z,1020.36
2023-04-06T07:07:17.647Z,1020.41
2023-04-06T07:09:44.564Z,1020.35
2023-04-06T07:12:11.369Z,1020.28
2023-04-06T07:14:38.241Z,1020.30
2023-04-06T07:17:05.167Z,1020.16
2023-04-06T07:19:32.395Z,1020.13
2023-04-06T07:22:00.600Z,1020.10
2023-04-06T07:24:27.470Z,1019.93
2023-04-06T07:26:54.476Z,1019.89
2023-04-06T07:29:21.326Z,1019.84
2023-04-06T07:31:48.326Z,1019.70
2023-04-06T07:34:15.194Z,1019.81
2023-04-06T07:36:42.213Z,1019.84
2023-04-06T07:39:10.491Z,1019.72
2023-04-06T07:41:37.697Z,1019.59
2023-04-06T07:44:05.656Z,1019.56
2023-04-06T07:46:32.790Z,1019.53
2023-04-06T07:49:00.718Z,1019.60
2023-04-06T07:51:27.736Z,1019.46
2023-04-06T07:53:54.549Z,1019.32
2023-04-06T07:56:22.910Z,1019.60
2023-04-06T07:58:51.014Z,1019.43
2023-04-06T08:01:19.016Z,1019.24
2023-04-06T08:03:47.272Z,1019.13
2023-04-06T08:06:14.256Z,1019.10
2023-04-06T08:08:41.190Z,1018.93
2023-04-06T08:11:08.065Z,1018.93
2023-04-06T08:13:36.754Z,1019.16
2023-04-06T08:16:03.906Z,1018.91
2023-04-06T08:18:30.818Z,1018.82
2023-04-06T08:20:57.808Z,1018.73
2023-04-06T08:23:24.957Z,1018.74
2023-04-06T08:25:52.067Z,1018.82
2023-04-06T08:28:19.173Z,1018.70
2023-04-06T08:30:47.689Z,1018.65
2023-04-06T08:33:14.850Z,1018.51
2023-04-06T08:35:41.891Z,1018.43
2023-04-06T08:38:08.913Z,1018.41
2023-04-06T08:40:37.845Z,1018.39
2023-04-06T08:43:09.844Z,1018.40
2023-04-06T08:45:37.001Z,1018.34
2023-04-06T08:48:06.558Z,1018.14
2023-04-06T08:50:34.184Z,1018.01
2023-04-06T08:53:02.317Z,1017.93
2023-04-06T08:55:29.476Z,1017.91
2023-04-06T08:57:57.425Z,1017.86
2023-04-06T09:00:26.638Z,1017.65
2023-04-06T09:02:56.462Z,1017.70
2023-04-06T09:05:26.200Z,1017.62
2023-04-06T09:07:53.751Z,1017.56
2023-04-06T09:10:20.752Z,1017.49
2023-04-06T09:12:47.721Z,1017.29
2023-04-06T09:15:24.167Z,1017.38
2023-04-06T09:17:51.831Z,1017.28
2023-04-06T09:20:24.900Z,1017.22
2023-04-06T09:22:51.803Z,1017.15
2023-04-06T09:25:20.612Z,1017.04
2023-04-06T09:27:47.785Z,1017.02
2023-04-06T09:30:15.557Z,1017.09
2023-04-06T09:32:48.299Z,1017.05
2023-04-06T09:35:15.441Z,1017.37
2023-04-06T09:37:44.369Z,1017.43
2023-04-06T09:40:12.331Z,1017.36
2023-04-06T09:42:41.391Z,1017.19
2023-04-06T09:45:09.274Z,1017.19
2023-04-06T09:47:37.580Z,1016.99
2023-04-06T09:50:05.954Z,1016.95
2023-04-06T09:52:34.759Z,1016.88
2023-04-06T09:55:06.363Z,1017.03
2023-04-06T09:57:39.162Z,1016.90
2023-04-06T10:00:08.409Z,1016.89
2023-04-06T10:02:42.193Z,1016.83
2023-04-06T10:05:14.281Z,1016.61
2023-04-06T10:07:56.812Z,1016.47
2023-04-06T10:10:28.922Z,1016.25
2023-04-06T10:12:56.132Z,1016.16
2023-04-06T10:15:23.271Z,1016.21
2023-04-06T10:17:50.359Z,1016.05
2023-04-06T10:20:32.503Z,1015.94
2023-04-06T10:23:05.978Z,1016.50
2023-04-06T10:25:34.684Z,1016.13
2023-04-06T10:28:02.081Z,1016.17
2023-04-06T10:30:29.893Z,1016.44
2023-04-06T10:32:56.948Z,1016.37
2023-04-06T10:35:23.983Z,1016.39
2023-04-06T10:37:53.149Z,1016.48
2023-04-06T10:40:24.185Z,1016.34
2023-04-06T10:42:52.717Z,1016.31
2023-04-06T10:45:24.680Z,1016.19
2023-04-06T10:47:53.773Z,1015.84
2023-04-06T10:50:21.533Z,1015.71
2023-04-06T10:53:00.274Z,1015.56
2023-04-06T10:55:27.896Z,1015.61
2023-04-06T10:57:56.242Z,1015.54
2023-04-06T11:00:23.680Z,1015.55
2023-04-06T11:02:50.608Z,1015.36
2023-04-06T11:05:17.501Z,1015.48
2023-04-06T11:07:45.294Z,1015.22
2023-04-06T11:10:17.573Z,1015.32
2023-04-06T11:12:46.024Z,1015.25
2023-04-06T11:15:14.499Z,1015.38
2023-04-06T11:17:41.951Z,1015.41
2023-04-06T11:20:12.015Z,1015.33
2023-04-06T11:22:49.483Z,1015.09
2023-04-06T11:25:16.357Z,1014.99
2023-04-06T11:27:44.168Z,1014.87
2023-04-06T11:30:11.800Z,1014.78
2023-04-06T11:32:42.700Z,1015.09
2023-04-06T11:35:12.211Z,1015.09
2023-04-06T11:37:39.109Z,1015.21
2023-04-06T11:40:09.685Z,1015.28
2023-04-06T11:42:36.652Z,1015.38
2023-04-06T11:45:04.233Z,1015.22
2023-04-06T11:47:33.554Z,1015.00
2023-04-06T11:50:10.203Z,1015.00
2023-04-06T11:52:37.110Z,1015.15
2023-04-06T11:55:12.687Z,1015.25
2023-04-06T11:57:39.840Z,1015.37
2023-04-06T12:00:09.485Z,1015.22
2023-04-06T12:02:36.417Z,1015.11
2023-04-06T12:05:03.579Z,1014.96
2023-04-06T12:07:32.029Z,1014.78
2023-04-06T12:09:59.472Z,1014.73
2023-04-06T12:12:26.537Z,1014.99
2023-04-06T12:14:53.572Z,1014.81
2023-04-06T12:17:21.604Z,1014.77
2023-04-06T12:19:48.759Z,1015.20
2023-04-06T12:22:16.269Z,1014.88
2023-04-06T12:24:44.550Z,1014.69
2023-04-06T12:27:11.443Z,1014.89
2023-04-06T12:29:38.511Z,1014.49
2023-04-06T12:32:05.526Z,1014.71
2023-04-06T12:34:32.836Z,1014.82
2023-04-06T12:36:59.914Z,1014.94
2023-04-06T12:39:28.116Z,1014.75
2023-04-06T12:41:56.486Z,1014.77
2023-04-06T12:44:24.757Z,1014.68
2023-04-06T12:46:52.439Z,1014.72
2023-04-06T12:49:19.314Z,1014.59
2023-04-06T12:51:46.244Z,1014.49
2023-04-06T12:54:13.118Z,1014.30
2023-04-06T12:56:40.017Z,1014.37
2023-04-06T12:59:08.690Z,1014.25
2023-04-06T13:01:35.942Z,1014.22
2023-04-06T13:04:02.898Z,1014.02
2023-04-06T13:06:30.191Z,1014.08
2023-04-06T13:08:57.061Z,1014.02
2023-04-06T13:11:25.046Z,1014.02
2023-04-06T13:13:52.469Z,1014.55
2023-04-06T13:16:20.724Z,1014.38
2023-04-06T13:18:47.682Z,1014.35
2023-04-06T13:21:15.494Z,1014.34
2023-04-06T13:23:42.495Z,1014.00
2023-04-06T13:26:09.340Z,1014.26
2023-04-06T13:28:37.469Z,1014.30
2023-04-06T13:31:04.459Z,1014.31
2023-04-06T13:33:32.728Z,1014.23
2023-04-06T13:35:59.795Z,1014.24
2023-04-06T13:38:26.668Z,1014.21
2023-04-06T13:40:53.700Z,1014.35
2023-04-06T13:43:20.515Z,1014.43
2023-04-06T13:45:50.725Z,1014.25
2023-04-06T13:48:17.684Z,1014.14
2023-04-06T13:50:46.017Z,1014.18
2023-04-06T13:53:13.091Z,1014.11
2023-04-06T13:55:39.834Z,1014.04
2023-04-06T13:58:06.667Z,1014.06
2023-04-06T14:00:33.628Z,1013.99
2023-04-06T14:03:00.559Z,1014.22
2023-04-06T14:05:27.352Z,1014.55
2023-04-06T14:07:55.642Z,1014.36
2023-04-06T14:10:22.410Z,1014.72
2023-04-06T14:12:49.305Z,1014.90
2023-04-06T14:15:16.255Z,1014.82
2023-04-06T14:17:43.040Z,1014.76
2023-04-06T14:20:10.858Z,1014.62
2023-04-06T14:22:38.488Z,1014.66
2023-04-06T14:25:08.539Z,1014.68
2023-04-06T14:27:35.389Z,1015.08
2023-04-06T14:30:02.246Z,1014.87
2023-04-06T14:32:28.993Z,1014.81
2023-04-06T14:34:55.839Z,1014.98
2023-04-06T14:37:22.545Z,1015.13
2023-04-06T14:39:49.319Z,1015.15
2023-04-06T14:42:17.407Z,1015.18
2023-04-06T14:44:44.897Z,1015.15
2023-04-06T14:47:11.902Z,1014.91
2023-04-06T14:49:39.939Z,1014.77
2023-04-06T14:52:06.788Z,1014.86
2023-04-06T14:54:34.642Z,1014.97
2023-04-06T14:57:01.560Z,1014.81
2023-04-06T15:02:02.472Z,1015.07
2023-04-06T15:04:30.550Z,1015.02
2023-04-06T15:06:58.692Z,1014.93
2023-04-06T15:09:26.549Z,1014.96
2023-04-06T15:11:54.361Z,1015.02
2023-04-06T15:14:22.245Z,1015.00
2023-04-06T15:16:51.712Z,1015.29
2023-04-06T15:19:19.625Z,1015.24
2023-04-06T15:21:47.410Z,1015.45
2023-04-06T15:24:14.505Z,1015.35
2023-04-06T15:26:41.336Z,1015.39
2023-04-06T15:29:08.049Z,1015.39
2023-04-06T15:31:38.069Z,1015.16
2023-04-06T15:34:07.250Z,1015.33
2023-04-06T15:36:34.343Z,1015.46
2023-04-06T15:39:01.338Z,1015.38
2023-04-06T15:41:28.163Z,1015.39
2023-04-06T15:43:55.859Z,1015.51
2023-04-06T15:46:23.104Z,1015.73
2023-04-06T15:48:49.891Z,1015.77
2023-04-06T15:51:18.201Z,1015.70
2023-04-06T15:53:52.134Z,1015.75
2023-04-06T15:56:19.128Z,1015.81
2023-04-06T15:58:46.126Z,1015.78
2023-04-06T16:01:13.860Z,1015.80
2023-04-06T16:03:40.812Z,1015.91
2023-04-06T16:06:09.236Z,1015.97
2023-04-06T16:08:39.182Z,1016.01
2023-04-06T16:11:06.074Z,1016.18
2023-04-06T16:13:33.418Z,1016.19
2023-04-06T16:16:00.287Z,1016.33
2023-04-06T16:18:27.097Z,1016.29
2023-04-06T16:20:53.940Z,1016.35
2023-04-06T16:23:20.751Z,1016.37
2023-04-06T16:25:49.793Z,1016.36
2023-04-06T16:28:16.841Z,1016.46
2023-04-06T16:30:45.820Z,1016.37
2023-04-06T16:33:19.429Z,1016.41
2023-04-06T16:35:47.481Z,1016.56
2023-04-06T16:38:15.276Z,1016.79
2023-04-06T16:40:42.569Z,1016.67
2023-04-06T16:43:11.464Z,1016.86
2023-04-06T16:45:38.814Z,1016.87
2023-04-06T16:48:06.151Z,1016.86
2023-04-06T16:50:33.128Z,1016.88
2023-04-06T16:53:02.491Z,1017.13
2023-04-06T16:55:29.261Z,1017.11
2023-04-06T16:57:56.299Z,1017.23
2023-04-06T17:00:24.896Z,1017.21
2023-04-06T17:02:51.817Z,1017.31
2023-04-06T17:05:18.968Z,1017.35
2023-04-06T17:07:45.663Z,1017.34
2023-04-06T17:10:12.399Z,1017.33
2023-04-06T17:12:39.140Z,1017.43
2023-04-06T17:15:07.168Z,1017.49
2023-04-06T17:17:35.385Z,1017.69
2023-04-06T17:20:02.188Z,1017.90
2023-04-06T17:22:29.011Z,1017.90
2023-04-06T17:24:55.869Z,1017.96
2023-04-06T17:27:22.701Z,1017.95
2023-04-06T17:29:49.601Z,1018.05
2023-04-06T17:32:16.319Z,1018.12
2023-04-06T17:34:44.668Z,1018.13
2023-04-06T17:37:11.416Z,1018.22
2023-04-06T17:39:38.206Z,1018.38
2023-04-06T17:42:05.123Z,1018.36
2023-04-06T17:44:32.054Z,1018.52
2023-04-06T17:46:58.807Z,1018.51
2023-04-06T17:49:25.582Z,1018.58
2023-04-06T17:51:53.931Z,1018.68
2023-04-06T17:54:20.737Z,1018.71
2023-04-06T17:56:47.593Z,1018.72
2023-04-06T17:59:14.458Z,1018.83
2023-04-06T18:01:41.361Z,1018.93
2023-04-06T18:04:08.347Z,1018.96
2023-04-06T18:06:35.221Z,1018.93
2023-04-06T18:09:03.485Z,1018.99
2023-04-06T18:11:30.444Z,1019.21
2023-04-06T18:13:57.740Z,1019.15
2023-04-06T18:16:24.826Z,1019.22
2023-04-06T18:18:52.082Z,1019.16
2023-04-06T18:21:18.803Z,1019.21
2023-04-06T18:23:46.726Z,1019.16
2023-04-06T18:26:19.424Z,1019.19
2023-04-06T18:28:46.661Z,1019.23
2023-04-06T18:31:14.243Z,1019.33
2023-04-06T18:33:41.078Z,1019.29
2023-04-06T18:36:08.388Z,1019.41
2023-04-06T18:38:35.183Z,1019.51
2023-04-06T18:41:01.985Z,1019.54
2023-04-06T18:43:30.104Z,1019.60
2023-04-06T18:45:56.891Z,1019.70
2023-04-06T18:48:23.630Z,1019.75
2023-04-06T18:50:53.948Z,1019.78
2023-04-06T18:53:20.985Z,1019.75
2023-04-06T18:55:47.749Z,1019.77
2023-04-06T18:58:14.461Z,1019.79
2023-04-06T19:00:42.854Z,1019.73
2023-04-06T19:03:09.906Z,1019.87
2023-04-06T19:05:37.268Z,1019.80
2023-04-06T19:08:04.164Z,1019.82
2023-04-06T19:10:30.986Z,1019.93
2023-04-06T19:12:57.745Z,1019.93
2023-04-06T19:15:24.581Z,1019.94
2023-04-06T19:17:52.771Z,1020.10
2023-04-06T19:20:19.727Z,1020.10
2023-04-06T19:22:46.548Z,1020.13
2023-04-06T19:25:13.259Z,1020.10
2023-04-06T19:27:40.007Z,1020.01
2023-04-06T19:30:07.923Z,1020.15
2023-04-06T19:32:34.754Z,1019.99
2023-04-06T19:35:03.915Z,1020.19
2023-04-06T19:37:30.678Z,1020.11
2023-04-06T19:39:57.477Z,1020.22
2023-04-06T19:42:24.235Z,1020.24
2023-04-06T19:44:51.062Z,1020.33
2023-04-06T19:47:17.847Z,1020.45
2023-04-06T19:49:44.880Z,1020.54
2023-04-06T19:52:13.177Z,1020.60
2023-04-06T19:54:40.266Z,1020.74
2023-04-06T19:57:07.394Z,1020.88
2023-04-06T19:59:34.209Z,1020.86
2023-04-06T20:02:01.204Z,1020.93
2023-04-06T20:04:28.140Z,1021.00
2023-04-06T20:06:55.005Z,1021.21
2023-04-06T20:09:23.142Z,1021.17
2023-04-06T20:11:49.983Z,1021.08
2023-04-06T20:14:16.772Z,1021.11
2023-04-06T20:16:43.611Z,1021.15
2023-04-06T20:19:10.415Z,1021.17
2023-04-06T20:21:38.246Z,1021.13
2023-04-06T20:24:06.336Z,1021.13
2023-04-06T20:26:34.562Z,1021.20
2023-04-06T20:29:01.303Z,1021.22
2023-04-06T20:31:28.856Z,1021.29
2023-04-06T20:33:56.058Z,1021.31
2023-04-06T20:36:23.108Z,1021.44
2023-04-06T20:38:49.910Z,1021.38
2023-04-06T20:41:16.635Z,1021.46
2023-04-06T20:43:44.783Z,1021.49
2023-04-06T20:46:16.271Z,1021.57
2023-04-06T20:48:43.099Z,1021.54
2023-04-06T20:51:17.902Z,1021.63
2023-04-06T20:53:44.715Z,1021.70
2023-04-06T20:56:11.690Z,1021.71
2023-04-06T20:58:38.444Z,1021.63
2023-04-06T21:01:11.876Z,1021.73
2023-04-06T21:03:38.731Z,1021.66
2023-04-06T21:06:05.745Z,1021.94
2023-04-06T21:08:32.492Z,1021.86
2023-04-06T21:10:59.376Z,1021.84
2023-04-06T21:13:26.248Z,1021.79
2023-04-06T21:15:53.482Z,1021.78
2023-04-06T21:18:21.976Z,1021.75
2023-04-06T21:20:49.104Z,1021.71
2023-04-06T21:23:15.911Z,1021.88
2023-04-06T21:25:42.644Z,1021.95
2023-04-06T21:28:09.362Z,1021.95
2023-04-06T21:30:37.004Z,1021.91
2023-04-06T21:33:04.201Z,1021.95
2023-04-06T21:35:32.360Z,1021.89
2023-04-06T21:37:59.267Z,1021.87
2023-04-06T21:40:26.047Z,1021.84
2023-04-06T21:42:52.776Z,1021.96
2023-04-06T21:45:19.534Z,1021.88
2023-04-06T21:47:46.312Z,1021.90
2023-04-06T21:50:13.134Z,1021.94
2023-04-06T21:52:41.252Z,1021.92
2023-04-06T21:55:08.746Z,1021.92
2023-04-06T21:57:35.552Z,1021.91
2023-04-06T22:00:02.592Z,1021.97
2023-04-06T22:02:29.519Z,1021.94
2023-04-06T22:04:56.609Z,1021.98
2023-04-06T22:07:23.486Z,1021.99
2023-04-06T22:09:53.727Z,1022.03
2023-04-06T22:12:20.711Z,1022.00
2023-04-06T22:14:47.490Z,1022.04
2023-04-06T22:17:32.737Z,1022.01
2023-04-06T22:20:00.778Z,1021.98
2023-04-06T22:22:27.667Z,1022.00
2023-04-06T22:24:55.855Z,1021.91
2023-04-06T22:27:22.617Z,1022.06
2023-04-06T22:29:49.452Z,1021.99
2023-04-06T22:32:16.255Z,1021.96
2023-04-06T22:34:43.173Z,1021.91
2023-04-06T22:37:10.045Z,1021.83
2023-04-06T22:39:36.789Z,1021.81
2023-04-06T22:42:05.173Z,1021.93
2023-04-06T22:44:32.026Z,1021.86
2023-04-06T22:46:58.921Z,1021.81
2023-04-06T22:49:25.703Z,1021.89
2023-04-06T22:51:52.468Z,1021.75
2023-04-06T22:54:19.459Z,1021.74
2023-04-06T22:56:46.352Z,1021.74
2023-04-06T22:59:14.581Z,1021.86
2023-04-06T23:01:41.450Z,1021.88
2023-04-06T23:04:08.362Z,1021.79
2023-04-06T23:06:35.289Z,1021.77
2023-04-06T23:09:02.099Z,1021.78
2023-04-06T23:11:28.874Z,1021.88
2023-04-06T23:13:55.746Z,1021.86
2023-04-06T23:16:23.969Z,1021.90
2023-04-06T23:18:50.802Z,1021.84
2023-04-06T23:21:17.550Z,1021.91
2023-04-06T23:23:44.382Z,1021.83
2023-04-06T23:26:11.117Z,1021.90
2023-04-06T23:28:37.832Z,1021.87
2023-04-06T23:31:04.602Z,1021.90
2023-04-06T23:33:32.751Z,1021.87
2023-04-06T23:35:59.563Z,1021.98
2023-04-06T23:38:26.359Z,1021.93
2023-04-06T23:40:53.096Z,1021.88
2023-04-06T23:43:19.844Z,1021.84
2023-04-06T23:45:46.692Z,1021.78
2023-04-06T23:48:13.482Z,1021.74
2023-04-06T23:50:41.605Z,1021.70
2023-04-06T23:53:08.384Z,1021.71
2023-04-06T23:55:35.276Z,1021.72
2023-04-06T23:58:02.029Z,1021.79
